Time;durP1;ratioP1;P1;durP2;ratioP2;P2;SDS_P1;SDS_P2;PMS_P1;PMS_P2;Temp;Humidity;BMP_temperature;BMP_pressure;BME280_temperature;BME280_humidity;BME280_pressure;Samples;Min_cycle;Max_cycle;Signal;HPM_P1;HPM_P2
2021/08/19 00:01:05;;;;;;;0.90;0.70;;;;;;;16.33;84.79;98829.91;4992581;28;20038;-70
2021/08/19 00:03:30;;;;;;;1.02;0.75;;;;;;;16.33;84.74;98847.09;4990826;28;20030;-70
2021/08/19 00:05:55;;;;;;;1.42;0.88;;;;;;;16.20;85.13;98828.25;4985911;28;20061;-69
2021/08/19 00:08:21;;;;;;;2.20;1.02;;;;;;;16.26;84.93;98823.72;4991695;28;20117;-70
2021/08/19 00:10:46;;;;;;;1.48;1.05;;;;;;;16.40;84.24;98834.16;4992041;28;20022;-70
2021/08/19 00:13:11;;;;;;;1.25;1.02;;;;;;;16.37;84.21;98831.06;4992437;28;20034;-69
2021/08/19 00:15:37;;;;;;;1.38;1.00;;;;;;;16.21;84.53;98816.25;4988202;28;20037;-69
2021/08/19 00:18:02;;;;;;;1.30;1.00;;;;;;;16.24;85.03;98839.50;4989626;28;20080;-69
2021/08/19 00:20:29;;;;;;;1.08;0.95;;;;;;;16.25;84.50;98822.91;4992070;28;20468;-68
2021/08/19 00:22:55;;;;;;;1.67;1.05;;;;;;;16.25;85.16;98825.63;4990568;28;20037;-70
2021/08/19 00:25:20;;;;;;;1.70;0.90;;;;;;;16.24;84.51;98807.56;4992186;28;20026;-70
2021/08/19 00:27:45;;;;;;;1.95;1.33;;;;;;;16.29;84.61;98821.34;4992369;28;20027;-68
2021/08/19 00:30:11;;;;;;;1.13;0.90;;;;;;;16.27;85.04;98825.38;4981102;28;20054;-70
2021/08/19 00:32:36;;;;;;;4.45;1.10;;;;;;;16.05;85.58;98785.06;4974685;28;20027;-70
2021/08/19 00:35:02;;;;;;;1.13;0.90;;;;;;;16.08;85.19;98797.41;4989728;28;20507;-70
2021/08/19 00:37:27;;;;;;;1.77;1.35;;;;;;;16.26;85.33;98815.53;4992400;28;20640;-70
2021/08/19 00:39:53;;;;;;;1.10;1.00;;;;;;;16.03;85.34;98789.09;4990667;28;20365;-70
2021/08/19 00:42:18;;;;;;;2.78;1.00;;;;;;;16.13;85.78;98813.88;4992040;28;20052;-69
2021/08/19 00:44:46;;;;;;;1.02;0.93;;;;;;;16.09;85.88;98807.25;4978102;28;20031;-71
2021/08/19 00:47:12;;;;;;;3.37;1.30;;;;;;;16.17;85.99;98818.63;4981872;28;20029;-71
2021/08/19 00:49:38;;;;;;;1.75;1.00;;;;;;;16.14;86.42;98815.56;4992010;28;20022;-71
2021/08/19 00:52:04;;;;;;;3.83;1.17;;;;;;;16.10;86.04;98798.00;4990955;28;20033;-71
2021/08/19 00:54:29;;;;;;;1.38;1.10;;;;;;;16.26;86.08;98804.63;4990477;28;20030;-71
2021/08/19 00:57:01;;;;;;;1.98;1.30;;;;;;;16.16;86.23;98806.03;4983546;28;20065;-71
2021/08/19 00:59:27;;;;;;;2.00;1.00;;;;;;;16.18;86.52;98803.09;4979520;28;20058;-71
2021/08/19 01:01:54;;;;;;;5.60;1.00;;;;;;;16.06;86.86;98796.81;4987472;28;20034;-70
2021/08/19 01:04:20;;;;;;;3.85;1.65;;;;;;;16.05;86.67;98801.44;4993817;28;20031;-71
2021/08/19 01:06:45;;;;;;;2.33;0.93;;;;;;;15.95;87.11;98788.38;4982694;28;20030;-71
2021/08/19 01:09:10;;;;;;;1.85;1.00;;;;;;;16.10;87.16;98804.28;4994652;28;20029;-71
2021/08/19 01:11:40;;;;;;;1.95;1.10;;;;;;;16.09;87.17;98791.72;4996034;28;20038;-71
2021/08/19 01:14:07;;;;;;;1.92;1.35;;;;;;;16.05;87.58;98790.53;4980717;28;20031;-71
2021/08/19 01:16:33;;;;;;;3.50;1.40;;;;;;;16.04;87.37;98788.88;4980807;28;20037;-71
2021/08/19 01:18:58;;;;;;;2.92;1.13;;;;;;;16.01;87.61;98778.44;4994974;28;20026;-71
2021/08/19 01:21:24;;;;;;;2.25;1.30;;;;;;;16.06;87.94;98800.38;4994514;28;20370;-71
2021/08/19 01:23:49;;;;;;;1.42;1.23;;;;;;;16.04;88.26;98802.53;4994225;28;20084;-70
2021/08/19 01:26:17;;;;;;;2.50;1.30;;;;;;;16.06;88.10;98799.53;4995235;28;20038;-71
2021/08/19 01:28:44;;;;;;;5.05;1.10;;;;;;;15.95;88.53;98793.03;4994719;28;20447;-71
2021/08/19 01:31:15;;;;;;;1.67;1.50;;;;;;;15.81;88.19;98764.34;4979898;28;20073;-70
2021/08/19 01:33:42;;;;;;;1.65;1.50;;;;;;;15.95;88.76;98796.56;4987297;28;20109;-71
2021/08/19 01:36:08;;;;;;;2.20;1.40;;;;;;;16.01;88.65;98794.81;4976876;28;20473;-70
2021/08/19 01:38:35;;;;;;;3.95;1.60;;;;;;;16.05;88.50;98797.88;4993445;28;20069;-69
2021/08/19 01:41:01;;;;;;;4.03;1.42;;;;;;;15.92;88.44;98780.69;4994729;28;20034;-69
2021/08/19 01:43:28;;;;;;;1.63;1.25;;;;;;;16.03;88.78;98800.84;4990543;28;20034;-70
2021/08/19 01:46:06;;;;;;;2.53;1.55;;;;;;;16.03;88.43;98797.28;4994283;28;20081;-70
2021/08/19 01:48:33;;;;;;;2.50;1.67;;;;;;;16.00;88.58;98804.88;4994791;28;20038;-70
2021/08/19 01:50:59;;;;;;;2.47;1.27;;;;;;;16.00;88.61;98784.94;4994883;28;20146;-69
2021/08/19 01:53:24;;;;;;;3.50;1.25;;;;;;;15.95;88.63;98788.38;4994301;28;20042;-70
2021/08/19 01:55:51;;;;;;;2.05;1.38;;;;;;;16.02;88.78;98801.91;4976954;28;20039;-70
2021/08/19 01:58:17;;;;;;;3.28;1.52;;;;;;;15.97;89.34;98799.91;4988005;28;20034;-69
2021/08/19 02:00:42;;;;;;;2.75;1.73;;;;;;;15.83;88.93;98779.41;4994566;28;20026;-70
2021/08/19 02:03:08;;;;;;;3.10;1.73;;;;;;;15.97;89.36;98799.91;4994191;28;20038;-70
2021/08/19 02:05:36;;;;;;;2.78;1.30;;;;;;;15.92;89.46;98793.50;4977988;28;20041;-71
2021/08/19 02:08:01;;;;;;;1.60;1.25;;;;;;;15.93;89.38;98798.72;4987367;28;20547;-71
2021/08/19 02:10:27;;;;;;;1.92;1.50;;;;;;;15.92;89.44;98786.13;4994780;28;20022;-70
2021/08/19 02:12:52;;;;;;;4.78;1.88;;;;;;;15.94;89.24;98784.00;4978339;28;20373;-69
2021/08/19 02:15:17;;;;;;;3.47;1.92;;;;;;;15.97;88.89;98799.91;4990309;28;20504;-69
2021/08/19 02:17:43;;;;;;;3.60;1.48;;;;;;;16.02;88.64;98787.44;4985080;28;20038;-70
2021/08/19 02:20:09;;;;;;;2.20;1.55;;;;;;;15.81;88.83;98767.88;4994568;28;20026;-69
2021/08/19 02:22:34;;;;;;;4.90;1.73;;;;;;;15.96;89.16;98784.59;4993957;28;20028;-69
2021/08/19 02:24:59;;;;;;;2.63;1.75;;;;;;;15.97;88.72;98785.44;4994532;28;20027;-69
2021/08/19 02:27:26;;;;;;;2.00;1.50;;;;;;;15.82;88.84;98764.09;4994193;28;20038;-69
2021/08/19 02:29:51;;;;;;;3.42;1.80;;;;;;;15.95;88.93;98788.38;4994289;28;20026;-70
2021/08/19 02:32:17;;;;;;;6.60;2.00;;;;;;;15.95;88.95;98782.09;4975044;28;20033;-69
2021/08/19 02:34:43;;;;;;;1.83;1.40;;;;;;;15.97;88.88;98780.78;4974801;28;20027;-69
2021/08/19 02:37:08;;;;;;;2.85;1.50;;;;;;;15.91;89.07;98781.75;4988958;28;20027;-70
2021/08/19 02:39:34;;;;;;;1.95;1.55;;;;;;;15.74;88.94;98756.25;4993992;28;20080;-69
2021/08/19 02:41:59;;;;;;;2.90;1.50;;;;;;;15.98;89.05;98782.47;4994349;28;20022;-71
2021/08/19 02:44:24;;;;;;;1.70;1.33;;;;;;;15.91;88.73;98778.22;4994573;28;20030;-69
2021/08/19 02:46:50;;;;;;;2.63;1.60;;;;;;;15.89;88.86;98780.34;4994155;28;20034;-70
2021/08/19 02:49:15;;;;;;;2.63;1.65;;;;;;;15.91;88.93;98781.75;4977336;28;20434;-69
2021/08/19 02:51:40;;;;;;;2.28;1.70;;;;;;;15.75;89.13;98752.47;4993979;28;20030;-70
2021/08/19 02:54:06;;;;;;;4.00;1.58;;;;;;;15.87;89.34;98782.47;4993826;28;20038;-70
2021/08/19 02:56:31;;;;;;;4.97;1.85;;;;;;;15.71;89.15;98735.75;4994098;28;20030;-69
2021/08/19 02:58:56;;;;;;;4.32;1.77;;;;;;;15.78;89.88;98777.38;4993293;28;20480;-69
2021/08/19 03:01:22;;;;;;;3.33;1.70;;;;;;;15.76;89.48;98762.31;4994063;28;20494;-70
2021/08/19 03:03:47;;;;;;;1.83;1.58;;;;;;;15.75;89.88;98768.84;4993798;28;20028;-69
2021/08/19 03:06:12;;;;;;;4.30;1.50;;;;;;;15.82;89.56;98766.81;4993778;28;20030;-70
2021/08/19 03:08:38;;;;;;;4.40;1.88;;;;;;;15.76;89.90;98754.13;4989247;28;20033;-71
2021/08/19 03:11:03;;;;;;;2.03;1.50;;;;;;;15.82;89.50;98752.34;4993871;28;20019;-69
2021/08/19 03:13:28;;;;;;;2.13;1.52;;;;;;;15.89;88.76;98761.25;4993180;28;20388;-70
2021/08/19 03:15:54;;;;;;;2.88;1.70;;;;;;;15.83;89.03;98763.03;4993661;28;20026;-69
2021/08/19 03:18:19;;;;;;;2.50;1.73;;;;;;;15.81;89.41;98767.88;4993137;28;20500;-69
2021/08/19 03:20:44;;;;;;;5.10;1.38;;;;;;;15.78;89.04;98749.28;4992915;28;20041;-70
2021/08/19 03:23:10;;;;;;;3.88;1.80;;;;;;;15.83;89.16;98768.50;4993381;28;20030;-69
2021/08/19 03:25:35;;;;;;;1.70;1.60;;;;;;;15.85;88.64;98763.63;4993401;28;20034;-70
2021/08/19 03:28:02;;;;;;;4.55;1.50;;;;;;;15.89;88.68;98753.06;4992894;28;20034;-69
2021/08/19 03:30:28;;;;;;;3.53;1.73;;;;;;;15.63;88.08;98714.25;4992945;28;20029;-70
2021/08/19 03:32:54;;;;;;;3.38;2.10;;;;;;;15.93;87.26;98755.06;4993277;28;20034;-69
2021/08/19 03:35:20;;;;;;;3.10;2.22;;;;;;;15.92;88.10;98764.31;4988200;28;20022;-69
2021/08/19 03:37:45;;;;;;;4.50;1.92;;;;;;;15.87;88.13;98741.53;4992196;28;20472;-71
2021/08/19 03:40:11;;;;;;;2.55;1.88;;;;;;;15.89;88.24;98763.97;4992478;28;20022;-69
2021/08/19 03:42:37;;;;;;;3.10;1.85;;;;;;;15.84;88.61;98758.41;4992340;28;20400;-70
2021/08/19 03:45:05;;;;;;;3.60;2.10;;;;;;;15.83;88.87;98773.13;4993166;28;20034;-71
2021/08/19 03:47:31;;;;;;;4.63;1.88;;;;;;;15.85;88.54;98770.97;4993266;28;20404;-70
2021/08/19 03:49:56;;;;;;;2.72;1.90;;;;;;;15.78;88.98;98758.28;4984584;28;20022;-69
2021/08/19 03:52:21;;;;;;;4.00;2.00;;;;;;;15.86;89.03;98756.25;4992929;28;20472;-69
2021/08/19 03:54:47;;;;;;;2.85;2.20;;;;;;;15.97;87.80;98761.69;4991752;28;20101;-69
2021/08/19 03:57:12;;;;;;;3.38;1.77;;;;;;;15.86;88.00;98770.72;4991386;28;20030;-69
2021/08/19 03:59:38;;;;;;;3.15;2.20;;;;;;;15.97;87.27;98761.69;4992590;28;20105;-70
2021/08/19 04:02:04;;;;;;;2.90;1.88;;;;;;;15.89;87.84;98762.06;4992785;28;20552;-69
2021/08/19 04:04:29;;;;;;;2.88;1.90;;;;;;;15.89;87.39;98767.53;4992599;28;20543;-71
2021/08/19 04:06:55;;;;;;;2.80;1.80;;;;;;;15.90;87.23;98754.69;4992936;28;20105;-70
2021/08/19 04:09:20;;;;;;;3.75;2.00;;;;;;;15.96;87.22;98761.94;4992440;28;20018;-70
2021/08/19 04:11:45;;;;;;;6.70;2.08;;;;;;;15.88;87.47;98757.69;4992974;28;20477;-70
2021/08/19 04:14:11;;;;;;;2.38;1.75;;;;;;;15.87;87.19;98760.66;4992388;28;22081;-70
2021/08/19 04:16:36;;;;;;;2.03;1.70;;;;;;;15.89;87.27;98762.06;4992611;28;20495;-70
2021/08/19 04:19:02;;;;;;;3.13;1.80;;;;;;;15.85;87.23;98760.03;4991972;28;20022;-71
2021/08/19 04:21:27;;;;;;;4.05;1.58;;;;;;;15.85;86.89;98755.44;4992454;28;20499;-70
2021/08/19 04:23:52;;;;;;;3.45;1.80;;;;;;;15.80;86.85;98749.88;4992379;28;20026;-70
2021/08/19 04:26:18;;;;;;;3.17;1.85;;;;;;;15.95;87.02;98768.47;4980626;28;20114;-70
2021/08/19 04:28:43;;;;;;;2.58;1.50;;;;;;;15.92;87.42;98769.78;4986656;28;20029;-70
2021/08/19 04:31:09;;;;;;;2.80;1.73;;;;;;;15.79;88.11;98748.19;4992364;28;20473;-70
2021/08/19 04:33:34;;;;;;;3.83;1.88;;;;;;;15.86;88.71;98773.47;4992253;28;20038;-71
2021/08/19 04:35:59;;;;;;;3.53;2.33;;;;;;;15.85;88.81;98774.53;4992257;28;20057;-70
2021/08/19 04:38:25;;;;;;;2.95;2.08;;;;;;;15.82;89.56;98772.25;4990192;28;20026;-70
2021/08/19 04:40:50;;;;;;;3.38;2.30;;;;;;;15.82;90.12;98775.00;4991419;28;20069;-71
2021/08/19 04:43:15;;;;;;;3.38;2.00;;;;;;;15.83;90.79;98781.31;4992785;28;20026;-70
2021/08/19 04:45:41;;;;;;;2.13;1.48;;;;;;;15.82;90.84;98787.81;4992082;28;20029;-71
2021/08/19 04:48:06;;;;;;;2.72;1.63;;;;;;;15.72;91.07;98774.78;4994115;28;20089;-71
2021/08/19 04:50:31;;;;;;;2.92;1.73;;;;;;;15.73;90.96;98766.34;4993054;28;20077;-72
2021/08/19 04:52:57;;;;;;;2.03;1.60;;;;;;;15.71;90.92;98767.66;4995770;28;20105;-74
2021/08/19 04:55:22;;;;;;;3.20;1.95;;;;;;;15.83;90.06;98787.59;4995063;28;20170;-72
2021/08/19 04:57:48;;;;;;;3.00;2.10;;;;;;;15.71;90.11;98768.47;4996118;28;20044;-71
2021/08/19 05:00:13;;;;;;;2.58;1.83;;;;;;;15.77;89.83;98767.53;4995045;28;20026;-72
2021/08/19 05:02:38;;;;;;;3.40;1.90;;;;;;;15.97;89.42;98790.88;4996012;28;20041;-71
2021/08/19 05:05:05;;;;;;;4.53;2.10;;;;;;;16.01;89.69;98786.63;4996171;28;20539;-71
2021/08/19 05:07:30;;;;;;;3.22;1.75;;;;;;;16.06;89.41;98791.34;4996305;28;20057;-71
2021/08/19 05:09:56;;;;;;;2.17;1.88;;;;;;;16.09;89.31;98788.97;4983875;28;20440;-68
2021/08/19 05:12:22;;;;;;;4.35;1.80;;;;;;;16.19;88.26;98796.53;4991778;28;20416;-70
2021/08/19 05:14:47;;;;;;;4.85;2.10;;;;;;;16.18;87.92;98787.53;4984373;28;20370;-69
2021/08/19 05:17:12;;;;;;;4.57;2.30;;;;;;;16.10;87.60;98776.97;4995706;28;20114;-68
2021/08/19 05:19:38;;;;;;;2.85;2.03;;;;;;;16.19;87.56;98780.16;4978502;28;20117;-73
2021/08/19 05:22:03;;;;;;;3.22;2.17;;;;;;;16.15;87.46;98784.47;4976546;28;20065;-72
2021/08/19 05:24:28;;;;;;;3.10;1.90;;;;;;;16.21;87.96;98784.31;5003984;28;20527;-71
2021/08/19 05:26:54;;;;;;;2.38;1.80;;;;;;;15.96;87.32;98743.69;4981454;28;20393;-72
2021/08/19 05:29:19;;;;;;;2.72;1.77;;;;;;;16.33;87.27;98797.97;4979144;28;20524;-71
2021/08/19 05:31:44;;;;;;;3.03;1.95;;;;;;;16.26;86.58;98789.06;4983040;28;20409;-72
2021/08/19 05:34:10;;;;;;;2.25;1.52;;;;;;;16.18;86.14;98767.59;4993445;28;20069;-73
2021/08/19 05:36:35;;;;;;;1.77;1.50;;;;;;;16.40;85.23;98793.19;4990505;28;20046;-73
2021/08/19 05:39:03;;;;;;;3.72;2.08;;;;;;;16.16;84.98;98765.09;4991077;28;20023;-70
2021/08/19 05:41:28;;;;;;;2.60;1.80;;;;;;;16.35;85.21;98797.72;4990123;28;20374;-70
2021/08/19 05:43:54;;;;;;;2.30;1.80;;;;;;;16.40;84.90;98789.63;4993750;28;20145;-70
2021/08/19 05:46:19;;;;;;;2.95;1.90;;;;;;;16.45;85.01;98806.09;4993852;28;20214;-72
2021/08/19 05:48:44;;;;;;;2.58;1.90;;;;;;;16.46;84.80;98807.78;4988359;28;20018;-72
2021/08/19 05:51:11;;;;;;;3.30;2.00;;;;;;;16.38;85.36;98806.25;4995402;28;20472;-70
2021/08/19 05:53:37;;;;;;;3.30;1.85;;;;;;;16.35;84.90;98795.00;4994229;28;20034;-72
2021/08/19 05:56:02;;;;;;;3.45;2.00;;;;;;;16.48;84.80;98812.97;4990619;28;20035;-72
2021/08/19 05:58:27;;;;;;;3.42;2.20;;;;;;;16.36;85.58;98807.56;4990844;28;20034;-70
2021/08/19 06:00:53;;;;;;;2.25;1.90;;;;;;;16.35;85.38;98797.72;4981291;28;20038;-74
2021/08/19 06:03:19;;;;;;;3.45;2.42;;;;;;;16.41;85.35;98816.69;4977327;28;20019;-75
2021/08/19 06:05:46;;;;;;;3.17;2.20;;;;;;;16.45;85.23;98800.66;4994503;28;20030;-74
2021/08/19 06:08:11;;;;;;;4.38;1.90;;;;;;;16.39;85.09;98802.44;4975713;28;20030;-75
2021/08/19 06:10:37;;;;;;;3.22;2.10;;;;;;;16.55;85.10;98816.41;4993448;28;20022;-74
2021/08/19 06:13:02;;;;;;;4.45;2.08;;;;;;;16.41;84.90;98786.66;4992819;28;20033;-74
2021/08/19 06:15:28;;;;;;;2.80;2.05;;;;;;;16.73;83.76;98801.75;4994964;28;20034;-75
2021/08/19 06:17:53;;;;;;;3.78;1.98;;;;;;;16.84;83.94;98793.53;4995488;28;20030;-76
2021/08/19 06:20:19;;;;;;;2.42;1.90;;;;;;;16.95;82.61;98789.09;4994254;28;20073;-75
2021/08/19 06:22:44;;;;;;;3.42;1.67;;;;;;;17.11;82.62;98801.16;4991851;28;20023;-74
2021/08/19 06:25:10;;;;;;;3.15;2.13;;;;;;;17.10;82.32;98813.13;4995751;28;20029;-77
2021/08/19 06:27:36;;;;;;;2.95;1.92;;;;;;;17.21;81.75;98816.88;4981431;28;20088;-76
2021/08/19 06:30:02;;;;;;;2.55;1.60;;;;;;;17.35;81.34;98815.50;4975597;28;20027;-75
2021/08/19 06:32:27;;;;;;;3.20;1.92;;;;;;;17.13;81.11;98798.16;4992988;28;20053;-78
2021/08/19 06:34:53;;;;;;;3.17;2.00;;;;;;;17.42;80.71;98820.81;4986877;28;20575;-74
2021/08/19 06:37:18;;;;;;;3.42;1.73;;;;;;;17.66;79.88;98811.38;4984555;28;20030;-74
2021/08/19 06:39:43;;;;;;;3.10;1.85;;;;;;;17.69;78.59;98788.97;4987699;28;20030;-73
2021/08/19 06:42:09;;;;;;;2.20;1.45;;;;;;;18.02;77.85;98817.41;4990621;28;20022;-73
2021/08/19 06:44:34;;;;;;;2.67;1.60;;;;;;;17.89;77.83;98793.97;4994452;28;20054;-74
2021/08/19 06:46:59;;;;;;;2.10;1.77;;;;;;;18.24;76.73;98811.97;4994231;28;20050;-73
2021/08/19 06:49:25;;;;;;;1.83;1.48;;;;;;;18.48;75.96;98795.31;4994276;28;20468;-73
2021/08/19 06:51:50;;;;;;;2.47;1.63;;;;;;;18.42;75.48;98801.78;4993745;28;20045;-73
2021/08/19 06:54:15;;;;;;;3.28;1.70;;;;;;;18.01;76.00;98801.25;4978507;28;20022;-69
2021/08/19 06:56:41;;;;;;;1.90;1.40;;;;;;;18.33;75.82;98812.38;4990174;28;20116;-69
2021/08/19 06:59:06;;;;;;;3.25;2.13;;;;;;;18.16;76.62;98817.91;4991582;28;20053;-69
2021/08/19 07:01:31;;;;;;;3.90;1.33;;;;;;;18.30;75.73;98805.47;4992379;28;20041;-69
2021/08/19 07:03:57;;;;;;;2.47;1.45;;;;;;;18.15;75.52;98794.31;4992652;28;20481;-69
2021/08/19 07:06:22;;;;;;;2.60;1.83;;;;;;;17.95;76.67;98819.50;4990180;28;20057;-71
2021/08/19 07:08:47;;;;;;;2.70;1.73;;;;;;;18.02;77.19;98822.88;4985452;28;20030;-69
2021/08/19 07:11:13;;;;;;;3.22;2.00;;;;;;;18.13;76.23;98827.44;4984124;28;20109;-69
2021/08/19 07:13:39;;;;;;;4.18;2.08;;;;;;;18.05;75.88;98797.75;4986876;28;20081;-69
2021/08/19 07:16:05;;;;;;;2.88;1.63;;;;;;;18.25;76.47;98827.31;4986104;28;20037;-68
2021/08/19 07:18:30;;;;;;;3.17;2.13;;;;;;;18.26;76.69;98815.31;4979690;28;20023;-68
2021/08/19 07:20:56;;;;;;;3.45;2.00;;;;;;;18.31;76.14;98823.59;4983686;28;20031;-68
2021/08/19 07:23:21;;;;;;;3.25;1.98;;;;;;;18.42;75.53;98813.59;4983785;28;20033;-74
2021/08/19 07:25:46;;;;;;;3.05;1.92;;;;;;;18.27;76.24;98819.69;4993723;28;20029;-69
2021/08/19 07:28:12;;;;;;;3.40;2.00;;;;;;;18.03;76.55;98810.88;4993481;28;20031;-70
2021/08/19 07:30:38;;;;;;;3.58;2.03;;;;;;;18.29;75.68;98820.28;4991790;28;20030;-70
2021/08/19 07:33:03;;;;;;;4.15;2.10;;;;;;;18.43;75.17;98815.25;4989000;28;20395;-69
2021/08/19 07:35:29;;;;;;;5.60;1.63;;;;;;;18.47;75.51;98821.88;4993438;28;20101;-71
2021/08/19 07:37:56;;;;;;;3.65;2.25;;;;;;;18.25;76.33;98824.59;4988893;28;20499;-71
2021/08/19 07:40:31;;;;;;;4.65;2.08;;;;;;;17.96;76.97;98812.94;4993134;28;20480;-72
2021/08/19 07:42:57;;;;;;;3.85;1.73;;;;;;;18.21;76.32;98823.44;4988605;28;20081;-72
2021/08/19 07:45:24;;;;;;;3.10;2.00;;;;;;;18.28;75.66;98815.03;4991987;28;20030;-72
2021/08/19 07:47:50;;;;;;;6.40;1.90;;;;;;;18.57;75.26;98827.47;4993085;28;20026;-71
2021/08/19 07:50:16;;;;;;;6.75;1.70;;;;;;;18.33;75.88;98828.78;4992363;28;20026;-71
2021/08/19 07:52:41;;;;;;;2.90;1.73;;;;;;;18.28;76.08;98801.34;4992395;28;20101;-74
2021/08/19 07:55:09;;;;;;;4.07;1.88;;;;;;;18.35;76.13;98830.19;4987268;28;20110;-73
2021/08/19 07:57:44;;;;;;;2.78;1.70;;;;;;;18.49;75.40;98822.44;4973430;28;20058;-72
2021/08/19 08:00:11;;;;;;;3.22;1.80;;;;;;;18.61;75.24;98828.63;4979722;28;20057;-70
2021/08/19 08:02:36;;;;;;;2.60;1.55;;;;;;;18.52;74.78;98804.66;4977144;28;20023;-73
2021/08/19 08:05:02;;;;;;;2.88;1.30;;;;;;;18.79;73.33;98832.16;4978454;28;20031;-71
2021/08/19 08:07:28;;;;;;;2.00;1.50;;;;;;;18.82;73.71;98832.47;4991501;28;20488;-73
2021/08/19 08:09:53;;;;;;;2.15;1.30;;;;;;;19.04;74.58;98823.38;4991688;28;20041;-74
2021/08/19 08:12:19;;;;;;;2.15;1.30;;;;;;;18.72;73.30;98834.22;4985226;28;20022;-72
2021/08/19 08:14:44;;;;;;;2.00;1.42;;;;;;;18.78;72.74;98803.06;4983003;28;20473;-73
2021/08/19 08:17:09;;;;;;;2.25;1.30;;;;;;;18.96;72.05;98810.94;4986678;28;20684;-70
2021/08/19 08:19:35;;;;;;;3.17;1.20;;;;;;;19.46;70.04;98818.00;4978707;28;20113;-73
2021/08/19 08:22:00;;;;;;;2.88;1.38;;;;;;;19.30;70.25;98829.94;4986125;28;20480;-73
2021/08/19 08:24:26;;;;;;;4.22;1.10;;;;;;;18.87;71.71;98828.97;4977499;28;20142;-76
2021/08/19 08:26:51;;;;;;;1.35;1.08;;;;;;;18.81;72.21;98838.19;4987954;28;20031;-74
2021/08/19 08:29:19;;;;;;;1.73;1.30;;;;;;;19.18;70.69;98788.16;4986852;28;20023;-75
2021/08/19 08:31:45;;;;;;;2.40;1.60;;;;;;;19.73;69.90;98833.66;4988682;28;20026;-73
2021/08/19 08:34:11;;;;;;;1.65;1.15;;;;;;;20.34;66.77;98823.06;4991487;28;20035;-71
2021/08/19 08:36:36;;;;;;;2.45;1.33;;;;;;;20.45;67.58;98825.88;4990032;28;20069;-76
2021/08/19 08:39:03;;;;;;;4.45;2.00;;;;;;;20.62;66.03;98844.94;4991288;28;20034;-72
2021/08/19 08:41:29;;;;;;;3.67;1.33;;;;;;;20.84;65.58;98825.53;4992239;28;20057;-73
2021/08/19 08:43:54;;;;;;;3.03;1.80;;;;;;;20.64;65.80;98827.06;4983966;28;20026;-72
2021/08/19 08:46:22;;;;;;;2.60;1.30;;;;;;;21.25;65.09;98815.44;4980088;28;20058;-75
2021/08/19 08:48:53;;;;;;;2.50;1.17;;;;;;;21.77;62.51;98830.06;4992315;28;20049;-72
2021/08/19 08:51:20;;;;;;;1.60;1.20;;;;;;;21.43;62.69;98811.34;4986392;28;20018;-71
2021/08/19 08:53:45;;;;;;;2.58;1.10;;;;;;;21.96;61.01;98813.84;4993013;28;20019;-72
2021/08/19 08:56:11;;;;;;;1.80;1.30;;;;;;;22.06;60.62;98820.16;4992716;28;20373;-72
2021/08/19 08:58:36;;;;;;;2.35;1.40;;;;;;;22.17;60.30;98818.19;4994612;28;20029;-71
2021/08/19 09:01:03;;;;;;;1.30;1.00;;;;;;;22.37;60.11;98820.09;4992944;28;20030;-71
2021/08/19 09:03:28;;;;;;;1.45;0.98;;;;;;;22.60;59.15;98809.53;4989633;28;20053;-72
2021/08/19 09:05:54;;;;;;;2.92;0.95;;;;;;;21.83;60.19;98769.22;4992455;28;20026;-71
2021/08/19 09:08:22;;;;;;;1.65;0.98;;;;;;;22.45;59.97;98826.94;4987596;28;20456;-72
2021/08/19 09:10:49;;;;;;;1.75;0.82;;;;;;;22.23;60.27;98819.03;4977441;28;20034;-73
2021/08/19 09:13:21;;;;;;;2.17;0.98;;;;;;;22.13;59.00;98817.09;4985325;28;20031;-73
2021/08/19 09:15:47;;;;;;;1.83;1.10;;;;;;;22.24;59.47;98821.53;4992340;28;20562;-72
2021/08/19 09:18:27;;;;;;;1.02;0.88;;;;;;;22.06;60.40;98819.28;4990762;28;20065;-71
2021/08/19 09:20:53;;;;;;;2.03;1.10;;;;;;;22.67;59.50;98827.44;4992134;28;20033;-71
2021/08/19 09:23:18;;;;;;;1.48;0.80;;;;;;;22.30;59.29;98809.38;4990938;28;20030;-71
2021/08/19 09:25:45;;;;;;;2.55;0.80;;;;;;;23.13;58.28;98805.16;4990094;28;20031;-69
2021/08/19 09:28:27;;;;;;;2.13;0.90;;;;;;;23.26;56.67;98817.47;4986097;28;20027;-65
2021/08/19 09:31:08;;;;;;;1.33;0.85;;;;;;;23.91;55.27;98816.44;4985772;28;20037;-65
2021/08/19 09:33:41;;;;;;;1.10;0.77;;;;;;;23.75;55.22;98811.06;4992439;28;20023;-68
2021/08/19 09:36:07;;;;;;;1.48;0.80;;;;;;;24.11;53.63;98809.91;4989822;28;20022;-65
2021/08/19 09:38:44;;;;;;;0.93;0.70;;;;;;;24.45;52.19;98807.06;4986222;28;20523;-67
2021/08/19 09:41:12;;;;;;;3.60;1.10;;;;;;;25.76;49.31;98802.72;4994005;28;20038;-68
2021/08/19 09:43:45;;;;;;;3.60;1.50;;;;;;;26.19;47.44;98801.69;4992770;28;20026;-72
2021/08/19 09:46:14;;;;;;;1.70;0.90;;;;;;;26.50;46.51;98798.34;4991742;28;20085;-65
2021/08/19 09:48:40;;;;;;;3.20;1.05;;;;;;;25.49;49.11;98784.06;4993466;28;20026;-64
2021/08/19 09:51:14;;;;;;;5.13;1.23;;;;;;;26.53;48.18;98797.75;4992944;28;20108;-64
2021/08/19 09:53:50;;;;;;;1.98;1.00;;;;;;;26.11;47.72;98799.63;4990246;28;20396;-70
2021/08/19 09:56:33;;;;;;;1.42;0.68;;;;;;;25.99;47.66;98789.88;4984167;28;20113;-64
2021/08/19 09:59:18;;;;;;;2.90;1.20;;;;;;;25.13;48.77;98795.66;4995109;28;20700;-64
2021/08/19 10:01:44;;;;;;;2.47;1.08;;;;;;;24.37;51.68;98793.88;4994473;28;20455;-68
2021/08/19 10:04:09;;;;;;;5.55;0.98;;;;;;;24.39;50.99;98794.38;4989278;28;20117;-74
2021/08/19 10:06:35;;;;;;;3.60;1.08;;;;;;;23.47;53.01;98789.72;4994204;28;20057;-75
2021/08/19 10:09:00;;;;;;;2.30;1.00;;;;;;;23.86;52.78;98799.91;4977066;28;20532;-65
2021/08/19 10:11:27;;;;;;;3.28;1.13;;;;;;;23.84;52.96;98795.53;4981987;28;20089;-71
2021/08/19 10:13:54;;;;;;;2.17;1.08;;;;;;;23.36;53.63;98806.38;5006282;28;20101;-75
2021/08/19 10:16:19;;;;;;;2.38;1.40;;;;;;;23.32;53.75;98763.91;4985753;28;20595;-75
2021/08/19 10:18:48;;;;;;;1.67;1.00;;;;;;;23.13;54.36;98801.56;4993454;28;20050;-71
2021/08/19 10:21:15;;;;;;;;;;;;;;;23.44;54.20;98798.59;5000234;28;20049;-70
2021/08/19 10:23:42;;;;;;;2.08;1.10;;;;;;;23.69;53.50;98795.63;5001007;28;20403;-72
2021/08/19 10:26:10;;;;;;;2.25;1.38;;;;;;;23.59;53.99;98795.72;5000571;28;20065;-72
2021/08/19 10:28:49;;;;;;;2.80;1.40;;;;;;;23.35;54.34;98782.63;4990887;28;20035;-72
2021/08/19 10:31:33;;;;;;;;;;;;;;;22.65;56.21;98798.47;4983936;28;20106;-70
2021/08/19 10:33:59;;;;;;;6.63;2.30;;;;;;;22.82;57.36;98798.97;4998333;28;19993;-71
2021/08/19 10:36:24;;;;;;;5.03;1.90;;;;;;;22.93;57.45;98797.78;4999855;28;20069;-70
2021/08/19 10:38:49;;;;;;;3.20;1.23;;;;;;;22.72;56.37;98782.47;4988389;28;20026;-71
2021/08/19 10:41:30;;;;;;;3.80;1.23;;;;;;;22.64;57.17;98796.84;4989523;28;20500;-71
2021/08/19 10:44:06;;;;;;;5.53;1.50;;;;;;;22.65;57.88;98790.22;4985237;28;20031;-71
2021/08/19 10:46:51;;;;;;;2.08;1.20;;;;;;;22.86;56.69;98799.22;4987757;28;20095;-71
2021/08/19 10:49:29;;;;;;;2.20;1.00;;;;;;;23.12;56.38;98792.47;4994200;28;20030;-70
2021/08/19 10:51:55;;;;;;;3.15;0.95;;;;;;;23.57;56.60;98786.88;4993860;28;20038;-72
2021/08/19 10:54:39;;;;;;;2.85;1.30;;;;;;;23.86;54.20;98767.56;4994225;28;20085;-72
2021/08/19 10:57:32;;;;;;;1.95;0.93;;;;;;;24.01;53.52;98774.91;4990074;28;20062;-71
2021/08/19 10:59:58;;;;;;;3.05;1.13;;;;;;;23.95;53.17;98781.59;4972758;28;20038;-71
2021/08/19 11:02:42;;;;;;;1.23;0.90;;;;;;;23.54;54.13;98781.94;4984055;28;20353;-71
2021/08/19 11:05:11;;;;;;;2.28;1.30;;;;;;;23.85;54.14;98777.00;4989970;28;20033;-71
2021/08/19 11:07:56;;;;;;;1.65;0.90;;;;;;;24.16;52.20;98769.22;4990288;28;20121;-71
2021/08/19 11:10:35;;;;;;;1.58;0.95;;;;;;;24.05;50.91;98751.91;4991212;28;20066;-71
2021/08/19 11:13:07;;;;;;;1.30;0.82;;;;;;;24.27;52.90;98769.91;4990634;28;20045;-72
2021/08/19 11:15:39;;;;;;;1.38;0.90;;;;;;;24.02;51.54;98768.25;4972392;28;20030;-71
2021/08/19 11:18:04;;;;;;;2.47;1.05;;;;;;;24.28;51.32;98754.97;4988359;28;20054;-71
2021/08/19 11:20:34;;;;;;;1.33;0.85;;;;;;;24.01;51.94;98748.09;4991489;28;20106;-71
2021/08/19 11:23:02;;;;;;;1.98;1.08;;;;;;;23.93;52.70;98770.00;4989344;28;20579;-71
2021/08/19 11:25:28;;;;;;;2.37;1.10;;;;;;;24.28;51.39;98769.59;4992444;28;20476;-70
2021/08/19 11:27:55;;;;;;;1.30;0.95;;;;;;;24.29;50.44;98759.41;4991510;28;20285;-71
2021/08/19 11:30:34;;;;;;;2.08;1.00;;;;;;;24.72;50.77;98753.88;4990754;28;20142;-71
2021/08/19 11:33:28;;;;;;;1.83;1.10;;;;;;;24.83;51.21;98763.69;4982282;28;20100;-71